sensor_id;sensor_type;location;lat;lon;timestamp;pressure;altitude;pressure_sealevel;temperature;humidity
29433;BME280;16405;53.964;13.448;2023-02-16T00:00:46;101864.69;;;1.49;100.00
29433;BME280;16405;53.964;13.448;2023-02-16T00:03:17;101862.06;;;1.48;100.00
29433;BME280;16405;53.964;13.448;2023-02-16T00:05:47;101865.53;;;1.48;100.00
29433;BME280;16405;53.964;13.448;2023-02-16T00:08:13;101859.44;;;1.46;100.00
29433;BME280;16405;53.964;13.448;2023-02-16T00:10:39;101875.00;;;1.43;100.00
29433;BME280;16405;53.964;13.448;2023-02-16T00:13:25;101868.88;;;1.38;100.00
29433;BME280;16405;53.964;13.448;2023-02-16T00:16:19;101864.63;;;1.44;100.00
29433;BME280;16405;53.964;13.448;2023-02-16T00:18:46;101858.53;;;1.42;100.00
29433;BME280;16405;53.964;13.448;2023-02-16T00:21:14;101875.88;;;1.43;100.00
29433;BME280;16405;53.964;13.448;2023-02-16T00:23:40;101875.00;;;1.43;100.00
29433;BME280;16405;53.964;13.448;2023-02-16T00:26:20;101864.59;;;1.41;100.00
29433;BME280;16405;53.964;13.448;2023-02-16T00:28:52;101868.06;;;1.42;100.00
29433;BME280;16405;53.964;13.448;2023-02-16T00:31:28;101856.81;;;1.38;100.00
29433;BME280;16405;53.964;13.448;2023-02-16T00:34:03;101854.22;;;1.38;100.00
29433;BME280;16405;53.964;13.448;2023-02-16T00:36:29;101849.84;;;1.36;100.00
29433;BME280;16405;53.964;13.448;2023-02-16T00:38:55;101848.16;;;1.39;100.00
29433;BME280;16405;53.964;13.448;2023-02-16T00:41:23;101849.03;;;1.41;100.00
29433;BME280;16405;53.964;13.448;2023-02-16T00:44:18;101852.47;;;1.37;100.00
29433;BME280;16405;53.964;13.448;2023-02-16T00:46:46;101848.09;;;1.33;100.00
29433;BME280;16405;53.964;13.448;2023-02-16T00:49:20;101845.41;;;1.24;100.00
29433;BME280;16405;53.964;13.448;2023-02-16T00:51:48;101845.41;;;1.21;100.00
29433;BME280;16405;53.964;13.448;2023-02-16T00:54:14;101847.16;;;1.23;100.00
29433;BME280;16405;53.964;13.448;2023-02-16T00:56:45;101842.84;;;1.27;100.00
29433;BME280;16405;53.964;13.448;2023-02-16T00:59:21;101847.22;;;1.30;100.00
29433;BME280;16405;53.964;13.448;2023-02-16T01:01:48;101840.19;;;1.22;100.00
29433;BME280;16405;53.964;13.448;2023-02-16T01:04:21;101828.06;;;1.18;100.00
29433;BME280;16405;53.964;13.448;2023-02-16T01:06:55;101822.84;;;1.18;100.00
29433;BME280;16405;53.964;13.448;2023-02-16T01:09:39;101828.94;;;1.19;100.00
29433;BME280;16405;53.964;13.448;2023-02-16T01:12:24;101835.00;;;1.19;100.00
29433;BME280;16405;53.964;13.448;2023-02-16T01:14:54;101828.91;;;1.16;100.00
29433;BME280;16405;53.964;13.448;2023-02-16T01:17:21;101820.22;;;1.11;100.00
29433;BME280;16405;53.964;13.448;2023-02-16T01:19:47;101820.16;;;1.06;100.00
29433;BME280;16405;53.964;13.448;2023-02-16T01:22:13;101813.28;;;1.08;100.00
29433;BME280;16405;53.964;13.448;2023-02-16T01:24:42;101809.78;;;1.08;100.00
29433;BME280;16405;53.964;13.448;2023-02-16T01:27:11;101802.91;;;1.08;100.00
29433;BME280;16405;53.964;13.448;2023-02-16T01:29:38;101803.78;;;1.12;100.00
29433;BME280;16405;53.964;13.448;2023-02-16T01:32:04;101803.78;;;1.12;100.00
29433;BME280;16405;53.964;13.448;2023-02-16T01:34:29;101802.94;;;1.13;100.00
29433;BME280;16405;53.964;13.448;2023-02-16T01:37:03;101807.25;;;1.14;100.00
29433;BME280;16405;53.964;13.448;2023-02-16T01:39:28;101803.78;;;1.12;100.00
29433;BME280;16405;53.964;13.448;2023-02-16T01:45:16;101806.28;;;1.02;100.00
29433;BME280;16405;53.964;13.448;2023-02-16T01:47:48;101810.53;;;0.96;100.00
29433;BME280;16405;53.964;13.448;2023-02-16T01:50:29;101797.53;;;0.91;100.00
29433;BME280;16405;53.964;13.448;2023-02-16T01:53:15;101787.03;;;0.82;100.00
29433;BME280;16405;53.964;13.448;2023-02-16T01:55:45;101787.09;;;0.85;100.00
29433;BME280;16405;53.964;13.448;2023-02-16T02:03:33;101790.44;;;0.75;100.00
29433;BME280;16405;53.964;13.448;2023-02-16T02:06:30;101775.63;;;0.65;100.00
29433;BME280;16405;53.964;13.448;2023-02-16T02:09:19;101777.41;;;0.69;100.00
29433;BME280;16405;53.964;13.448;2023-02-16T02:12:33;101770.44;;;0.65;100.00
29433;BME280;16405;53.964;13.448;2023-02-16T02:15:04;101766.09;;;0.60;100.00
29433;BME280;16405;53.964;13.448;2023-02-16T02:17:33;101757.44;;;0.58;100.00
29433;BME280;16405;53.964;13.448;2023-02-16T02:29:39;101757.38;;;0.52;100.00
29433;BME280;16405;53.964;13.448;2023-02-16T02:32:32;101771.94;;;0.44;100.00
29433;BME280;16405;53.964;13.448;2023-02-16T02:35:46;101768.50;;;0.44;100.00
29433;BME280;16405;53.964;13.448;2023-02-16T02:42:12;101769.25;;;0.35;100.00
29433;BME280;16405;53.964;13.448;2023-02-16T02:47:12;101765.78;;;0.34;100.00
29433;BME280;16405;53.964;13.448;2023-02-16T02:49:38;101763.13;;;0.30;100.00
29433;BME280;16405;53.964;13.448;2023-02-16T02:52:04;101769.19;;;0.29;100.00
29433;BME280;16405;53.964;13.448;2023-02-16T02:54:39;101760.47;;;0.22;100.00
29433;BME280;16405;53.964;13.448;2023-02-16T02:58:03;101755.22;;;0.17;100.00
29433;BME280;16405;53.964;13.448;2023-02-16T03:00:44;101741.41;;;0.18;100.00
29433;BME280;16405;53.964;13.448;2023-02-16T03:03:32;101732.72;;;0.15;100.00
29433;BME280;16405;53.964;13.448;2023-02-16T03:06:35;101740.44;;;0.10;100.00
29433;BME280;16405;53.964;13.448;2023-02-16T03:09:10;101732.66;;;0.10;100.00
29433;BME280;16405;53.964;13.448;2023-02-16T03:11:39;101737.84;;;0.10;100.00
29433;BME280;16405;53.964;13.448;2023-02-16T03:17:34;101730.00;;;0.03;100.00
29433;BME280;16405;53.964;13.448;2023-02-16T03:20:20;101727.34;;;-0.01;100.00
29433;BME280;16405;53.964;13.448;2023-02-16T03:23:08;101731.78;;;0.07;100.00
29433;BME280;16405;53.964;13.448;2023-02-16T03:25:52;101730.94;;;0.09;100.00
29433;BME280;16405;53.964;13.448;2023-02-16T03:28:40;101736.97;;;0.10;100.00
29433;BME280;16405;53.964;13.448;2023-02-16T03:31:37;101739.53;;;0.08;100.00
29433;BME280;16405;53.964;13.448;2023-02-16T03:34:04;101736.88;;;0.02;100.00
29433;BME280;16405;53.964;13.448;2023-02-16T03:36:35;101733.41;;;-0.02;100.00
29433;BME280;16405;53.964;13.448;2023-02-16T03:39:03;101742.88;;;-0.01;100.00
29433;BME280;16405;53.964;13.448;2023-02-16T03:41:39;101742.00;;;-0.04;100.00
29433;BME280;16405;53.964;13.448;2023-02-16T03:44:11;101744.59;;;-0.04;100.00
29433;BME280;16405;53.964;13.448;2023-02-16T03:46:37;101724.72;;;-0.05;100.00
29433;BME280;16405;53.964;13.448;2023-02-16T03:49:03;101722.16;;;-0.04;100.00
29433;BME280;16405;53.964;13.448;2023-02-16T03:51:29;101718.69;;;-0.04;100.00
29433;BME280;16405;53.964;13.448;2023-02-16T03:53:55;101710.78;;;-0.15;100.00
29433;BME280;16405;53.964;13.448;2023-02-16T03:56:29;101703.75;;;-0.25;100.00
29433;BME280;16405;53.964;13.448;2023-02-16T03:58:55;101704.50;;;-0.31;100.00
29433;BME280;16405;53.964;13.448;2023-02-16T04:01:20;101694.97;;;-0.35;100.00
29433;BME280;16405;53.964;13.448;2023-02-16T04:03:46;101697.53;;;-0.38;100.00
29433;BME280;16405;53.964;13.448;2023-02-16T04:06:21;101701.84;;;-0.38;100.00
29433;BME280;16405;53.964;13.448;2023-02-16T04:08:47;101719.97;;;-0.35;100.00
29433;BME280;16405;53.964;13.448;2023-02-16T04:11:13;101708.75;;;-0.37;100.00
29433;BME280;16405;53.964;13.448;2023-02-16T04:14:00;101706.06;;;-0.44;100.00
29433;BME280;16405;53.964;13.448;2023-02-16T04:16:26;101726.78;;;-0.42;100.00
29433;BME280;16405;53.964;13.448;2023-02-16T04:18:51;101727.66;;;-0.43;100.00
29433;BME280;16405;53.964;13.448;2023-02-16T04:21:17;101718.03;;;-0.50;100.00
29433;BME280;16405;53.964;13.448;2023-02-16T04:23:43;101726.59;;;-0.54;100.00
29433;BME280;16405;53.964;13.448;2023-02-16T04:26:09;101727.50;;;-0.52;100.00
29433;BME280;16405;53.964;13.448;2023-02-16T04:28:34;101718.75;;;-0.60;100.00
29433;BME280;16405;53.964;13.448;2023-02-16T04:31:02;101721.28;;;-0.64;100.00
29433;BME280;16405;53.964;13.448;2023-02-16T04:33:31;101719.56;;;-0.63;100.00
29433;BME280;16405;53.964;13.448;2023-02-16T04:35:57;101729.94;;;-0.62;100.00
29433;BME280;16405;53.964;13.448;2023-02-16T04:38:23;101726.47;;;-0.64;100.00
29433;BME280;16405;53.964;13.448;2023-02-16T04:40:50;101721.25;;;-0.65;100.00
29433;BME280;16405;53.964;13.448;2023-02-16T04:43:19;101728.22;;;-0.63;100.00
29433;BME280;16405;53.964;13.448;2023-02-16T04:45:47;101728.19;;;-0.64;100.00
29433;BME280;16405;53.964;13.448;2023-02-16T04:48:13;101722.94;;;-0.69;100.00
29433;BME280;16405;53.964;13.448;2023-02-16T04:50:39;101716.81;;;-0.74;100.00
29433;BME280;16405;53.964;13.448;2023-02-16T04:53:05;101711.53;;;-0.80;100.00
29433;BME280;16405;53.964;13.448;2023-02-16T04:55:31;101713.25;;;-0.82;100.00
29433;BME280;16405;53.964;13.448;2023-02-16T04:57:57;101699.31;;;-0.92;100.00
29433;BME280;16405;53.964;13.448;2023-02-16T05:00:26;101698.34;;;-0.98;100.00
29433;BME280;16405;53.964;13.448;2023-02-16T05:02:52;101702.59;;;-1.00;100.00
29433;BME280;16405;53.964;13.448;2023-02-16T05:05:17;101706.00;;;-1.03;100.00
29433;BME280;16405;53.964;13.448;2023-02-16T05:07:44;101708.56;;;-1.05;100.00
29433;BME280;16405;53.964;13.448;2023-02-16T05:10:10;101701.53;;;-1.13;100.00
29433;BME280;16405;53.964;13.448;2023-02-16T05:12:36;101697.09;;;-1.19;100.00
29433;BME280;16405;53.964;13.448;2023-02-16T05:15:20;101690.91;;;-1.30;100.00
29433;BME280;16405;53.964;13.448;2023-02-16T05:17:49;101707.22;;;-1.33;100.00
29433;BME280;16405;53.964;13.448;2023-02-16T05:20:14;101703.69;;;-1.36;100.00
29433;BME280;16405;53.964;13.448;2023-02-16T05:22:42;101693.19;;;-1.46;100.00
29433;BME280;16405;53.964;13.448;2023-02-16T05:25:15;101712.22;;;-1.42;100.00
29433;BME280;16405;53.964;13.448;2023-02-16T05:27:43;101697.44;;;-1.51;100.00
29433;BME280;16405;53.964;13.448;2023-02-16T05:30:10;101693.91;;;-1.54;100.00
29433;BME280;16405;53.964;13.448;2023-02-16T05:32:36;101688.69;;;-1.56;100.00
29433;BME280;16405;53.964;13.448;2023-02-16T05:35:11;101695.50;;;-1.61;100.00
29433;BME280;16405;53.964;13.448;2023-02-16T05:37:36;101688.56;;;-1.63;100.00
29433;BME280;16405;53.964;13.448;2023-02-16T05:40:02;101694.59;;;-1.63;100.00
29433;BME280;16405;53.964;13.448;2023-02-16T05:42:31;101689.41;;;-1.66;100.00
29433;BME280;16405;53.964;13.448;2023-02-16T05:44:59;101685.88;;;-1.70;100.00
29433;BME280;16405;53.964;13.448;2023-02-16T05:47:26;101688.41;;;-1.73;100.00
29433;BME280;16405;53.964;13.448;2023-02-16T05:49:52;101681.44;;;-1.75;100.00
29433;BME280;16405;53.964;13.448;2023-02-16T05:52:18;101677.16;;;-1.76;100.00
29433;BME280;16405;53.964;13.448;2023-02-16T05:54:44;101668.50;;;-1.78;100.00
29433;BME280;16405;53.964;13.448;2023-02-16T05:57:10;101671.94;;;-1.78;100.00
29433;BME280;16405;53.964;13.448;2023-02-16T05:59:43;101669.28;;;-1.82;100.00
29433;BME280;16405;53.964;13.448;2023-02-16T06:02:09;101671.00;;;-1.83;100.00
29433;BME280;16405;53.964;13.448;2023-02-16T06:04:35;101665.91;;;-1.78;100.00
29433;BME280;16405;53.964;13.448;2023-02-16T06:07:01;101679.78;;;-1.73;100.00
29433;BME280;16405;53.964;13.448;2023-02-16T06:09:34;101678.09;;;-1.71;100.00
29433;BME280;16405;53.964;13.448;2023-02-16T06:12:00;101677.22;;;-1.72;100.00
29433;BME280;16405;53.964;13.448;2023-02-16T06:14:26;101674.66;;;-1.72;100.00
29433;BME280;16405;53.964;13.448;2023-02-16T06:16:55;101666.91;;;-1.72;100.00
29433;BME280;16405;53.964;13.448;2023-02-16T06:19:23;101669.53;;;-1.69;100.00
29433;BME280;16405;53.964;13.448;2023-02-16T06:21:49;101682.44;;;-1.69;100.00
29433;BME280;16405;53.964;13.448;2023-02-16T06:24:15;101680.75;;;-1.68;100.00
29433;BME280;16405;53.964;13.448;2023-02-16T06:26:41;101678.09;;;-1.73;100.00
29433;BME280;16405;53.964;13.448;2023-02-16T06:29:08;101671.03;;;-1.80;100.00
29433;BME280;16405;53.964;13.448;2023-02-16T06:31:44;101665.78;;;-1.84;100.00
29433;BME280;16405;53.964;13.448;2023-02-16T06:34:10;101655.44;;;-1.86;100.00
29433;BME280;16405;53.964;13.448;2023-02-16T06:36:35;101663.28;;;-1.80;100.00
29433;BME280;16405;53.964;13.448;2023-02-16T06:39:02;101657.31;;;-1.77;100.00
29433;BME280;16405;53.964;13.448;2023-02-16T06:41:37;101658.91;;;-1.84;100.00
29433;BME280;16405;53.964;13.448;2023-02-16T06:44:13;101657.31;;;-1.79;100.00
29433;BME280;16405;53.964;13.448;2023-02-16T06:46:45;101658.22;;;-1.77;100.00
29433;BME280;16405;53.964;13.448;2023-02-16T06:49:19;101648.66;;;-1.81;100.00
29433;BME280;16405;53.964;13.448;2023-02-16T06:51:47;101652.16;;;-1.77;100.00
29433;BME280;16405;53.964;13.448;2023-02-16T06:54:16;101667.84;;;-1.68;100.00
29433;BME280;16405;53.964;13.448;2023-02-16T06:56:45;101666.16;;;-1.66;100.00
29433;BME280;16405;53.964;13.448;2023-02-16T06:59:11;101655.88;;;-1.63;100.00
29433;BME280;16405;53.964;13.448;2023-02-16T07:01:37;101656.94;;;-1.52;100.00
29433;BME280;16405;53.964;13.448;2023-02-16T07:04:03;101642.47;;;-1.40;100.00
29433;BME280;16405;53.964;13.448;2023-02-16T07:06:32;101646.22;;;-1.25;100.00
29433;BME280;16405;53.964;13.448;2023-02-16T07:09:00;101661.09;;;-1.10;100.00
29433;BME280;16405;53.964;13.448;2023-02-16T07:11:26;101651.84;;;-0.95;100.00
29433;BME280;16405;53.964;13.448;2023-02-16T07:13:52;101650.59;;;-0.64;100.00
29433;BME280;16405;53.964;13.448;2023-02-16T07:16:18;101659.84;;;-0.16;100.00
29433;BME280;16405;53.964;13.448;2023-02-16T07:18:44;101663.72;;;0.22;100.00
29433;BME280;16405;53.964;13.448;2023-02-16T07:21:13;101663.56;;;0.93;100.00
29433;BME280;16405;53.964;13.448;2023-02-16T07:23:39;101680.56;;;1.88;100.00
29433;BME280;16405;53.964;13.448;2023-02-16T07:26:06;101691.25;;;3.07;100.00
29433;BME280;16405;53.964;13.448;2023-02-16T07:28:31;101683.19;;;4.15;100.00
29433;BME280;16405;53.964;13.448;2023-02-16T07:30:57;101691.84;;;5.39;94.02
29433;BME280;16405;53.964;13.448;2023-02-16T07:33:23;101700.22;;;6.46;87.33
29433;BME280;16405;53.964;13.448;2023-02-16T07:35:56;101697.56;;;7.56;81.82
29433;BME280;16405;53.964;13.448;2023-02-16T07:38:22;101701.53;;;8.21;77.00
29433;BME280;16405;53.964;13.448;2023-02-16T07:40:47;101685.94;;;7.71;74.60
29433;BME280;16405;53.964;13.448;2023-02-16T07:43:13;101684.66;;;8.33;73.41
29433;BME280;16405;53.964;13.448;2023-02-16T07:45:39;101693.63;;;7.79;72.96
29433;BME280;16405;53.964;13.448;2023-02-16T07:48:06;101685.25;;;6.56;73.73
29433;BME280;16405;53.964;13.448;2023-02-16T07:50:40;101682.88;;;5.63;75.76
29433;BME280;16405;53.964;13.448;2023-02-16T07:53:06;101684.44;;;4.93;77.20
29433;BME280;16405;53.964;13.448;2023-02-16T07:55:37;101704.81;;;5.48;78.51
29433;BME280;16405;53.964;13.448;2023-02-16T07:58:05;101711.50;;;7.09;76.05
29433;BME280;16405;53.964;13.448;2023-02-16T08:00:31;101717.63;;;8.02;74.11
29433;BME280;16405;53.964;13.448;2023-02-16T08:02:57;101720.59;;;8.70;71.32
29433;BME280;16405;53.964;13.448;2023-02-16T08:05:23;101710.75;;;9.15;69.74
29433;BME280;16405;53.964;13.448;2023-02-16T08:07:53;101706.94;;;9.61;67.89
29433;BME280;16405;53.964;13.448;2023-02-16T08:10:20;101710.47;;;9.60;67.24
29433;BME280;16405;53.964;13.448;2023-02-16T08:12:46;101682.44;;;8.14;68.55
29433;BME280;16405;53.964;13.448;2023-02-16T08:15:12;101689.56;;;7.14;70.96
29433;BME280;16405;53.964;13.448;2023-02-16T08:17:38;101689.03;;;6.92;72.94
29433;BME280;16405;53.964;13.448;2023-02-16T08:20:05;101703.25;;;8.22;71.91
29433;BME280;16405;53.964;13.448;2023-02-16T08:22:32;101709.66;;;8.51;70.74
29433;BME280;16405;53.964;13.448;2023-02-16T08:25:00;101699.97;;;7.67;71.71
29433;BME280;16405;53.964;13.448;2023-02-16T08:27:26;101696.06;;;6.90;73.08
29433;BME280;16405;53.964;13.448;2023-02-16T08:29:52;101683.66;;;6.46;74.57
29433;BME280;16405;53.964;13.448;2023-02-16T08:32:18;101672.81;;;6.07;76.28
29433;BME280;16405;53.964;13.448;2023-02-16T08:34:52;101681.44;;;6.16;77.22
29433;BME280;16405;53.964;13.448;2023-02-16T08:37:17;101697.47;;;6.55;77.96
29433;BME280;16405;53.964;13.448;2023-02-16T08:39:43;101694.78;;;6.58;78.07
29433;BME280;16405;53.964;13.448;2023-02-16T08:42:11;101693.50;;;6.27;78.86
29433;BME280;16405;53.964;13.448;2023-02-16T08:44:38;101690.25;;;6.09;79.41
29433;BME280;16405;53.964;13.448;2023-02-16T08:47:07;101687.06;;;5.80;80.36
29433;BME280;16405;53.964;13.448;2023-02-16T08:49:35;101689.00;;;5.62;81.44
29433;BME280;16405;53.964;13.448;2023-02-16T08:52:01;101688.84;;;5.79;82.23
29433;BME280;16405;53.964;13.448;2023-02-16T08:54:31;101688.63;;;5.99;82.81
29433;BME280;16405;53.964;13.448;2023-02-16T08:56:58;101699.38;;;6.46;82.31
29433;BME280;16405;53.964;13.448;2023-02-16T08:59:25;101694.53;;;6.77;81.86
29433;BME280;16405;53.964;13.448;2023-02-16T09:01:51;101700.97;;;7.10;81.54
29433;BME280;16405;53.964;13.448;2023-02-16T09:04:18;101694.59;;;7.25;80.29
29433;BME280;16405;53.964;13.448;2023-02-16T09:06:51;101710.88;;;7.44;80.17
29433;BME280;16405;53.964;13.448;2023-02-16T09:09:18;101707.84;;;7.67;79.87
29433;BME280;16405;53.964;13.448;2023-02-16T09:11:44;101719.72;;;7.85;79.61
29433;BME280;16405;53.964;13.448;2023-02-16T09:14:11;101721.50;;;7.83;79.49
29433;BME280;16405;53.964;13.448;2023-02-16T09:16:47;101716.22;;;7.86;79.20
29433;BME280;16405;53.964;13.448;2023-02-16T09:19:16;101725.50;;;8.02;79.17
29433;BME280;16405;53.964;13.448;2023-02-16T09:21:52;101733.91;;;8.18;78.52
29433;BME280;16405;53.964;13.448;2023-02-16T09:24:25;101729.72;;;8.10;78.23
29433;BME280;16405;53.964;13.448;2023-02-16T09:26:51;101730.78;;;8.01;78.46
29433;BME280;16405;53.964;13.448;2023-02-16T09:29:17;101734.13;;;8.09;78.77
29433;BME280;16405;53.964;13.448;2023-02-16T09:31:46;101721.50;;;8.27;78.03
29433;BME280;16405;53.964;13.448;2023-02-16T09:34:19;101721.25;;;8.40;78.19
29433;BME280;16405;53.964;13.448;2023-02-16T09:36:46;101725.38;;;8.51;77.60
29433;BME280;16405;53.964;13.448;2023-02-16T09:39:13;101733.13;;;8.58;77.73
29433;BME280;16405;53.964;13.448;2023-02-16T09:45:26;101732.84;;;8.29;78.15
29433;BME280;16405;53.964;13.448;2023-02-16T09:47:55;101727.94;;;8.12;78.88
29433;BME280;16405;53.964;13.448;2023-02-16T09:50:35;101720.25;;;8.02;79.53
29433;BME280;16405;53.964;13.448;2023-02-16T09:53:18;101712.91;;;7.76;80.15
29433;BME280;16405;53.964;13.448;2023-02-16T09:56:07;101704.22;;;7.73;80.82
29433;BME280;16405;53.964;13.448;2023-02-16T09:58:52;101709.91;;;7.50;80.64
29433;BME280;16405;53.964;13.448;2023-02-16T10:02:30;101707.41;;;7.44;81.46
29433;BME280;16405;53.964;13.448;2023-02-16T10:10:21;101701.97;;;7.53;82.67
29433;BME280;16405;53.964;13.448;2023-02-16T10:13:07;101697.66;;;7.50;82.54
29433;BME280;16405;53.964;13.448;2023-02-16T10:15:40;101707.19;;;7.56;82.24
29433;BME280;16405;53.964;13.448;2023-02-16T10:18:39;101702.63;;;7.64;82.12
29433;BME280;16405;53.964;13.448;2023-02-16T10:21:18;101701.66;;;7.71;81.87
29433;BME280;16405;53.964;13.448;2023-02-16T10:23:55;101697.38;;;7.66;81.63
29433;BME280;16405;53.964;13.448;2023-02-16T10:26:41;101697.31;;;7.69;81.19
29433;BME280;16405;53.964;13.448;2023-02-16T10:29:18;101699.88;;;7.73;81.34
29433;BME280;16405;53.964;13.448;2023-02-16T10:32:26;101704.13;;;7.77;81.33
29433;BME280;16405;53.964;13.448;2023-02-16T10:35:13;101697.03;;;7.84;81.07
29433;BME280;16405;53.964;13.448;2023-02-16T10:41:35;101695.69;;;8.07;80.72
29433;BME280;16405;53.964;13.448;2023-02-16T10:44:25;101687.81;;;8.08;80.47
29433;BME280;16405;53.964;13.448;2023-02-16T10:47:01;101692.94;;;8.14;80.23
29433;BME280;16405;53.964;13.448;2023-02-16T10:49:31;101696.44;;;8.12;79.58
29433;BME280;16405;53.964;13.448;2023-02-16T10:52:04;101705.88;;;8.20;80.25
29433;BME280;16405;53.964;13.448;2023-02-16T10:54:38;101699.66;;;8.26;80.26
29433;BME280;16405;53.964;13.448;2023-02-16T10:57:29;101697.13;;;8.21;79.82
29433;BME280;16405;53.964;13.448;2023-02-16T11:00:15;101698.81;;;8.26;79.97
29433;BME280;16405;53.964;13.448;2023-02-16T11:02:54;101696.16;;;8.27;79.80
29433;BME280;16405;53.964;13.448;2023-02-16T11:05:35;101693.59;;;8.24;79.90
29433;BME280;16405;53.964;13.448;2023-02-16T11:08:05;101698.91;;;8.21;79.68
29433;BME280;16405;53.964;13.448;2023-02-16T11:10:50;101698.91;;;8.21;80.13
29433;BME280;16405;53.964;13.448;2023-02-16T11:13:31;101702.19;;;8.31;80.20
29433;BME280;16405;53.964;13.448;2023-02-16T11:16:11;101697.91;;;8.27;79.78
29433;BME280;16405;53.964;13.448;2023-02-16T11:19:17;101691.47;;;8.40;79.81
29433;BME280;16405;53.964;13.448;2023-02-16T11:21:54;101697.53;;;8.45;79.92
29433;BME280;16405;53.964;13.448;2023-02-16T11:24:35;101700.16;;;8.45;79.96
29433;BME280;16405;53.964;13.448;2023-02-16T11:27:22;101686.00;;;8.52;80.04
29433;BME280;16405;53.964;13.448;2023-02-16T11:30:32;101679.66;;;8.61;80.02
29433;BME280;16405;53.964;13.448;2023-02-16T11:33:26;101679.25;;;8.79;79.41
29433;BME280;16405;53.964;13.448;2023-02-16T11:35:56;101674.00;;;8.79;79.55
29433;BME280;16405;53.964;13.448;2023-02-16T11:38:35;101675.78;;;8.77;79.41
29433;BME280;16405;53.964;13.448;2023-02-16T11:41:06;101675.56;;;8.87;79.52
29433;BME280;16405;53.964;13.448;2023-02-16T11:43:38;101673.78;;;8.87;79.47
29433;BME280;16405;53.964;13.448;2023-02-16T11:46:18;101671.88;;;8.94;78.83
29433;BME280;16405;53.964;13.448;2023-02-16T11:48:46;101683.09;;;9.00;78.99
29433;BME280;16405;53.964;13.448;2023-02-16T11:51:27;101680.31;;;9.07;79.06
29433;BME280;16405;53.964;13.448;2023-02-16T11:54:01;101680.88;;;9.19;79.13
29433;BME280;16405;53.964;13.448;2023-02-16T11:56:33;101670.06;;;9.32;78.22
29433;BME280;16405;53.964;13.448;2023-02-16T11:59:22;101665.09;;;9.52;78.71
29433;BME280;16405;53.964;13.448;2023-02-16T12:05:11;101679.59;;;9.67;78.08
29433;BME280;16405;53.964;13.448;2023-02-16T12:08:23;101679.28;;;9.79;78.14
29433;BME280;16405;53.964;13.448;2023-02-16T12:11:31;101680.25;;;9.75;77.63
29433;BME280;16405;53.964;13.448;2023-02-16T12:14:21;101674.06;;;9.78;77.41
29433;BME280;16405;53.964;13.448;2023-02-16T12:19:45;101672.50;;;9.71;77.36
29433;BME280;16405;53.964;13.448;2023-02-16T12:22:43;101673.22;;;9.76;78.11
29433;BME280;16405;53.964;13.448;2023-02-16T12:25:41;101665.41;;;9.74;77.94
29433;BME280;16405;53.964;13.448;2023-02-16T12:28:26;101665.47;;;9.71;78.32
29433;BME280;16405;53.964;13.448;2023-02-16T12:33:48;101665.22;;;9.49;78.47
29433;BME280;16405;53.964;13.448;2023-02-16T12:37:19;101664.66;;;9.36;78.43
29433;BME280;16405;53.964;13.448;2023-02-16T12:40:29;101658.97;;;9.20;79.21
29433;BME280;16405;53.964;13.448;2023-02-16T12:43:34;101654.69;;;9.16;79.41
29433;BME280;16405;53.964;13.448;2023-02-16T12:46:20;101653.03;;;9.12;80.10
29433;BME280;16405;53.964;13.448;2023-02-16T12:48:53;101650.47;;;9.09;80.47
29433;BME280;16405;53.964;13.448;2023-02-16T12:51:34;101638.66;;;8.93;80.74
29433;BME280;16405;53.964;13.448;2023-02-16T12:54:28;101644.03;;;8.87;81.63
29433;BME280;16405;53.964;13.448;2023-02-16T12:57:18;101640.88;;;8.72;82.42
29433;BME280;16405;53.964;13.448;2023-02-16T12:59:56;101638.59;;;8.58;83.03
29433;BME280;16405;53.964;13.448;2023-02-16T13:05:28;101641.47;;;8.49;84.80
29433;BME280;16405;53.964;13.448;2023-02-16T13:13:33;101624.63;;;8.58;85.61
29433;BME280;16405;53.964;13.448;2023-02-16T13:18:52;101623.66;;;8.62;85.89
29433;BME280;16405;53.964;13.448;2023-02-16T13:27:28;101610.19;;;8.38;86.01
29433;BME280;16405;53.964;13.448;2023-02-16T13:30:36;101601.75;;;8.24;86.19
29433;BME280;16405;53.964;13.448;2023-02-16T13:33:26;101600.09;;;8.20;86.82
29433;BME280;16405;53.964;13.448;2023-02-16T13:39:17;101594.97;;;8.14;88.42
29433;BME280;16405;53.964;13.448;2023-02-16T13:45:21;101596.28;;;8.33;88.33
29433;BME280;16405;53.964;13.448;2023-02-16T13:47:55;101593.75;;;8.30;88.58
29433;BME280;16405;53.964;13.448;2023-02-16T13:52:50;101593.00;;;8.25;88.67
29433;BME280;16405;53.964;13.448;2023-02-16T13:55:36;101595.66;;;8.22;88.58
29433;BME280;16405;53.964;13.448;2023-02-16T14:00:41;101601.94;;;8.16;88.48
29433;BME280;16405;53.964;13.448;2023-02-16T14:03:35;101598.63;;;8.08;89.20
29433;BME280;16405;53.964;13.448;2023-02-16T14:14:35;101604.97;;;7.98;89.29
29433;BME280;16405;53.964;13.448;2023-02-16T14:22:51;101601.72;;;7.85;90.77
29433;BME280;16405;53.964;13.448;2023-02-16T14:28:01;101589.66;;;7.78;92.05
29433;BME280;16405;53.964;13.448;2023-02-16T14:30:58;101590.50;;;7.78;92.07
29433;BME280;16405;53.964;13.448;2023-02-16T14:33:51;101588.72;;;7.80;92.05
29433;BME280;16405;53.964;13.448;2023-02-16T14:36:24;101593.13;;;7.80;91.98
29433;BME280;16405;53.964;13.448;2023-02-16T14:38:54;101589.59;;;7.81;91.88
29433;BME280;16405;53.964;13.448;2023-02-16T14:41:35;101587.78;;;7.85;91.95
29433;BME280;16405;53.964;13.448;2023-02-16T14:50:00;101581.09;;;7.68;91.82
29433;BME280;16405;53.964;13.448;2023-02-16T14:56:47;101582.13;;;7.63;92.25
29433;BME280;16405;53.964;13.448;2023-02-16T14:58:55;101581.19;;;7.65;93.09
29433;BME280;16405;53.964;13.448;2023-02-16T15:01:24;101577.78;;;7.60;93.17
29433;BME280;16405;53.964;13.448;2023-02-16T15:03:55;101579.63;;;7.56;93.35